الصفحة الرئيسية
METAR-TAF:

METAR-TAF

مطار :

Prescott, أريزونا, الولايات المتحدة

دائرة عرض: 34-38-57N, خط طول: 112-25-20W, ارتفاع: 1537 متر

مراقبة الطقس الحالي

تاريخ ووقت الإصدار 25 دقيقة قبل الساعة 09:53UTC
ريح 4 عقدة من الجنوب
درجة الحرارة 11°درجة مئوية
الرطوبة 37%
ضغط 1025 hPa
الرؤية: 16.1 كم
سماء صافية

METAR: KPRC 290953Z AUTO 19004KT 10SM CLR 11/M03 A3027 RMK AO2 SLP176 T01111028

زمن: 03:18 (10:18 UTC)

توقعات

تاريخ ووقت الإصدار 4ساعات و 58 دقيقة قبل الساعة 05:20UTC
التوقعات صالحة من29 الساعة 06 UTC إلى 30 الساعة 06 UTC
ريح 5 عقدةمن اتجاهات متغيرة
الرؤية: 10 كم
سماء صافية

TAF: KPRC 290520Z 2906/3006 VRB05KT P6SM SKC

أرصاد الطقس والتوقعات من أكثر من 4000 مطار (تقارير الطقس للمطار METAR والتنبؤ بالطقس بالمطارTAF).

المحطات المتاحة هي النقط الصفراء والحمراء على الخريطة.

حرك المؤشر فوق النقطة لمعرفة اسم المحطة.

ثم انقر لمعرفة أرصاد وتوقعات الطقس.

لتغيير الخارطة: اضغط على الأزرار الخضراء مع رمز الصليب الأسود للتكبير. على الزر الأخضر مع شرطة للتصغير، أو على الأسهم الخضراء للخرائط المجاورة.


METAR-TAF: